createdAt,value
2023-04-03T00:02:24.559Z,2.49
2023-04-03T00:04:51.029Z,2.46
2023-04-03T00:07:17.433Z,2.28
2023-04-03T00:09:43.804Z,2.68
2023-04-03T00:12:10.217Z,3.45
2023-04-03T00:14:36.693Z,2.81
2023-04-03T00:17:03.172Z,2.57
2023-04-03T00:19:29.579Z,2.17
2023-04-03T00:21:55.979Z,2.30
2023-04-03T00:24:22.381Z,2.35
2023-04-03T00:26:48.771Z,2.53
2023-04-03T00:29:15.158Z,2.91
2023-04-03T00:31:41.567Z,2.82
2023-04-03T00:34:07.954Z,2.89
2023-04-03T00:36:34.464Z,2.73
2023-04-03T00:39:00.926Z,2.87
2023-04-03T00:41:27.321Z,2.65
2023-04-03T00:43:53.748Z,2.48
2023-04-03T00:46:20.136Z,2.32
2023-04-03T00:48:46.600Z,2.41
2023-04-03T00:51:13.008Z,2.27
2023-04-03T00:53:39.440Z,2.69
2023-04-03T00:56:05.838Z,2.49
2023-04-03T00:58:32.218Z,2.28
2023-04-03T01:00:58.658Z,1.74
2023-04-03T01:03:25.082Z,3.82
2023-04-03T01:05:51.488Z,1.66
2023-04-03T01:08:17.886Z,1.71
2023-04-03T01:10:44.288Z,1.66
2023-04-03T01:13:10.670Z,1.36
2023-04-03T01:15:37.051Z,1.38
2023-04-03T01:18:03.474Z,1.23
2023-04-03T01:20:29.889Z,1.64
2023-04-03T01:22:56.268Z,1.23
2023-04-03T01:25:22.670Z,1.09
2023-04-03T01:27:49.043Z,1.12
2023-04-03T01:30:15.421Z,1.35
2023-04-03T01:32:41.882Z,1.60
2023-04-03T01:35:08.300Z,2.47
2023-04-03T01:37:34.711Z,2.96
2023-04-03T01:40:01.122Z,3.31
2023-04-03T01:42:27.507Z,3.48
2023-04-03T01:44:53.905Z,3.71
2023-04-03T01:47:20.431Z,3.74
2023-04-03T01:49:46.841Z,3.55
2023-04-03T01:52:13.277Z,2.84
2023-04-03T01:54:39.658Z,2.72
2023-04-03T01:57:06.085Z,2.97
2023-04-03T01:59:32.526Z,2.25
2023-04-03T02:01:58.913Z,1.50
2023-04-03T02:04:25.389Z,1.49
2023-04-03T02:06:51.907Z,1.31
2023-04-03T02:09:18.283Z,1.61
2023-04-03T02:11:44.861Z,1.56
2023-04-03T02:14:11.279Z,1.54
2023-04-03T02:16:37.818Z,1.85
2023-04-03T02:19:04.289Z,1.92
2023-04-03T02:21:30.678Z,1.84
2023-04-03T02:23:57.069Z,1.98
2023-04-03T02:26:23.512Z,1.78
2023-04-03T02:28:49.889Z,1.36
2023-04-03T02:31:16.298Z,1.40
2023-04-03T02:33:42.739Z,1.44
2023-04-03T02:36:09.133Z,1.07
2023-04-03T02:38:35.563Z,1.22
2023-04-03T02:41:01.937Z,0.79
2023-04-03T02:43:28.324Z,0.58
2023-04-03T02:45:54.807Z,0.50
2023-04-03T02:48:21.271Z,0.71
2023-04-03T02:50:47.659Z,0.72
2023-04-03T02:53:14.061Z,1.02
2023-04-03T02:55:40.449Z,0.91
2023-04-03T02:58:09.622Z,0.88
2023-04-03T03:00:36.403Z,1.09
2023-04-03T03:03:03.056Z,1.17
2023-04-03T03:05:29.508Z,1.07
2023-04-03T03:07:55.909Z,1.33
2023-04-03T03:10:22.317Z,1.66
2023-04-03T03:12:48.746Z,1.73
2023-04-03T03:15:15.171Z,1.63
2023-04-03T03:17:41.620Z,1.26
2023-04-03T03:20:08.109Z,1.01
2023-04-03T03:22:34.526Z,0.86
2023-04-03T03:25:00.897Z,0.82
2023-04-03T03:27:27.287Z,0.65
2023-04-03T03:29:53.674Z,0.83
2023-04-03T03:32:20.088Z,1.21
2023-04-03T03:34:46.486Z,1.23
2023-04-03T03:37:12.895Z,1.06
2023-04-03T03:39:39.288Z,1.26
2023-04-03T03:42:05.673Z,1.10
2023-04-03T03:44:32.088Z,1.10
2023-04-03T03:46:58.515Z,0.61
2023-04-03T03:49:24.936Z,0.75
2023-04-03T03:51:51.354Z,0.89
2023-04-03T03:54:17.753Z,0.68
2023-04-03T03:56:44.191Z,0.69
2023-04-03T03:59:10.609Z,0.73
2023-04-03T04:01:37.158Z,0.72
2023-04-03T04:04:03.575Z,0.81
2023-04-03T04:06:29.992Z,1.03
2023-04-03T04:08:56.372Z,1.36
2023-04-03T04:11:22.758Z,1.44
2023-04-03T04:13:49.171Z,2.08
2023-04-03T04:16:15.634Z,2.38
2023-04-03T04:18:42.061Z,2.43
2023-04-03T04:21:08.465Z,2.23
2023-04-03T04:23:34.839Z,2.46
2023-04-03T04:26:01.243Z,2.25
2023-04-03T04:28:27.639Z,2.48
2023-04-03T04:30:54.111Z,2.17
2023-04-03T04:33:20.496Z,2.26
2023-04-03T04:35:46.982Z,1.99
2023-04-03T04:38:13.432Z,1.84
2023-04-03T04:40:39.834Z,1.83
2023-04-03T04:43:06.255Z,2.15
2023-04-03T04:45:32.664Z,2.34
2023-04-03T04:47:59.123Z,2.57
2023-04-03T04:50:25.537Z,2.30
2023-04-03T04:52:51.958Z,2.10
2023-04-03T04:55:18.358Z,2.10
2023-04-03T04:57:44.761Z,3.34
2023-04-03T05:00:11.157Z,3.38
2023-04-03T05:02:37.577Z,3.54
2023-04-03T05:05:05.141Z,4.09
2023-04-03T05:07:31.918Z,4.98
2023-04-03T05:09:58.304Z,5.48
2023-04-03T05:12:24.713Z,6.02
2023-04-03T05:14:51.145Z,6.42
2023-04-03T05:17:17.561Z,5.96
2023-04-03T05:19:43.946Z,6.11
2023-04-03T05:22:10.333Z,5.85
2023-04-03T05:24:36.758Z,5.73
2023-04-03T05:27:03.148Z,5.67
2023-04-03T05:29:29.548Z,5.64
2023-04-03T05:31:56.009Z,5.53
2023-04-03T05:34:22.460Z,5.39
2023-04-03T05:36:48.853Z,5.83
2023-04-03T05:39:15.391Z,5.69
2023-04-03T05:41:41.767Z,5.73
2023-04-03T05:44:08.172Z,5.49
2023-04-03T05:46:34.536Z,5.55
2023-04-03T05:49:00.954Z,5.77
2023-04-03T05:51:27.359Z,6.07
2023-04-03T05:53:53.736Z,6.57
2023-04-03T05:56:20.130Z,7.04
2023-04-03T05:58:46.521Z,7.63
2023-04-03T06:01:12.920Z,6.27
2023-04-03T06:03:40.278Z,6.67
2023-04-03T06:06:07.005Z,7.48
2023-04-03T06:08:33.403Z,7.24
2023-04-03T06:10:59.797Z,7.67
2023-04-03T06:13:26.268Z,7.35
2023-04-03T06:15:53.030Z,7.12
2023-04-03T06:18:19.422Z,6.56
2023-04-03T06:20:45.844Z,6.11
2023-04-03T06:23:12.409Z,6.24
2023-04-03T06:25:38.849Z,6.08
2023-04-03T06:28:05.259Z,6.41
2023-04-03T06:30:31.665Z,6.47
2023-04-03T06:32:58.144Z,6.39
2023-04-03T06:35:24.546Z,7.51
2023-04-03T06:37:51.108Z,7.02
2023-04-03T06:40:17.497Z,7.26
2023-04-03T06:42:43.889Z,7.06
2023-04-03T06:45:10.274Z,7.58
2023-04-03T06:47:36.941Z,7.37
2023-04-03T06:50:03.464Z,7.94
2023-04-03T06:52:29.886Z,7.80
2023-04-03T06:54:56.356Z,7.62
2023-04-03T06:57:22.831Z,7.97
2023-04-03T06:59:49.287Z,8.18
2023-04-03T07:02:15.692Z,7.76
2023-04-03T07:04:42.160Z,8.25
2023-04-03T07:07:08.627Z,8.41
2023-04-03T07:09:35.050Z,7.85
2023-04-03T07:12:01.502Z,7.60
2023-04-03T07:14:27.895Z,7.49
2023-04-03T07:16:54.374Z,8.13
2023-04-03T07:19:21.021Z,8.73
2023-04-03T07:21:47.490Z,8.76
2023-04-03T07:24:16.194Z,8.64
2023-04-03T07:26:43.288Z,8.54
2023-04-03T07:29:09.700Z,8.10
2023-04-03T07:31:36.127Z,8.01
2023-04-03T07:34:02.539Z,8.05
2023-04-03T07:36:28.980Z,8.13
2023-04-03T07:38:55.400Z,7.90
2023-04-03T07:41:21.808Z,7.90
2023-04-03T07:43:48.208Z,7.59
2023-04-03T07:46:14.695Z,7.94
2023-04-03T07:48:41.112Z,7.95
2023-04-03T07:51:07.514Z,8.16
2023-04-03T07:53:34.032Z,8.30
2023-04-03T07:56:00.464Z,8.19
2023-04-03T07:58:26.885Z,8.69
2023-04-03T08:00:53.280Z,8.78
2023-04-03T08:03:19.888Z,8.55
2023-04-03T08:05:46.393Z,8.79
2023-04-03T08:08:12.817Z,8.99
2023-04-03T08:10:39.202Z,9.17
2023-04-03T08:13:05.591Z,9.80
2023-04-03T08:15:32.005Z,9.62
2023-04-03T08:17:58.400Z,9.38
2023-04-03T08:20:24.807Z,9.15
2023-04-03T08:22:51.202Z,9.59
2023-04-03T08:25:17.608Z,9.60
2023-04-03T08:27:44.027Z,9.78
2023-04-03T08:30:10.433Z,9.90
2023-04-03T08:32:36.869Z,9.82
2023-04-03T08:35:03.300Z,9.88
2023-04-03T08:37:29.693Z,10.49
2023-04-03T08:39:56.131Z,9.91
2023-04-03T08:42:22.550Z,9.87
2023-04-03T08:44:48.952Z,9.84
2023-04-03T08:47:15.356Z,10.18
2023-04-03T08:49:41.780Z,10.92
2023-04-03T08:52:08.225Z,11.13
2023-04-03T08:54:35.310Z,10.83
2023-04-03T08:57:02.016Z,10.34
2023-04-03T08:59:28.450Z,11.17
2023-04-03T09:01:54.917Z,11.49
2023-04-03T09:04:21.429Z,11.61
2023-04-03T09:06:47.858Z,12.47
2023-04-03T09:09:14.290Z,11.85
2023-04-03T09:11:40.686Z,11.58
2023-04-03T09:14:07.149Z,12.09
2023-04-03T09:16:33.623Z,11.65
2023-04-03T09:19:00.049Z,12.14
2023-04-03T09:21:26.476Z,12.01
2023-04-03T09:23:52.853Z,11.90
2023-04-03T09:26:19.255Z,11.78
2023-04-03T09:28:50.375Z,11.58
2023-04-03T09:31:17.434Z,11.98
2023-04-03T09:33:43.849Z,12.18
2023-04-03T09:36:10.300Z,11.54
2023-04-03T09:38:36.687Z,11.43
2023-04-03T09:41:03.084Z,11.06
2023-04-03T09:43:29.499Z,10.91
2023-04-03T09:45:55.976Z,10.92
2023-04-03T09:48:22.471Z,10.77
2023-04-03T09:50:48.929Z,10.92
2023-04-03T09:53:15.355Z,10.96
2023-04-03T09:55:41.757Z,10.29
2023-04-03T09:58:08.156Z,10.82
2023-04-03T10:00:34.566Z,10.98
2023-04-03T10:03:01.031Z,10.94
2023-04-03T10:05:27.469Z,9.96
2023-04-03T10:08:01.716Z,10.08
2023-04-03T10:10:30.161Z,10.22
2023-04-03T10:12:56.562Z,9.80
2023-04-03T10:15:22.952Z,9.92
2023-04-03T10:17:49.446Z,9.92
2023-04-03T10:20:15.965Z,10.09
2023-04-03T10:22:42.387Z,10.68
2023-04-03T10:25:08.812Z,10.02
2023-04-03T10:27:35.196Z,10.53
2023-04-03T10:30:01.603Z,10.08
2023-04-03T10:32:28.023Z,9.12
2023-04-03T10:35:02.629Z,8.84
2023-04-03T10:37:30.887Z,8.73
2023-04-03T10:39:57.292Z,8.18
2023-04-03T10:42:23.693Z,8.32
2023-04-03T10:44:50.086Z,8.78
2023-04-03T10:47:16.467Z,8.71
2023-04-03T10:49:49.829Z,8.04
2023-04-03T10:52:19.984Z,8.49
2023-04-03T10:54:46.403Z,7.40
2023-04-03T10:57:13.973Z,7.45
2023-04-03T10:59:40.716Z,7.64
2023-04-03T11:02:07.155Z,7.30
2023-04-03T11:04:33.535Z,7.50
2023-04-03T11:06:59.940Z,7.22
2023-04-03T11:09:26.368Z,7.14
2023-04-03T11:11:52.749Z,7.57
2023-04-03T11:14:19.166Z,7.42
2023-04-03T11:16:53.281Z,7.58
2023-04-03T11:19:20.945Z,7.32
2023-04-03T11:21:47.356Z,7.99
2023-04-03T11:24:13.770Z,7.14
2023-04-03T11:26:40.168Z,7.25
2023-04-03T11:29:06.560Z,6.90
2023-04-03T11:31:33.010Z,6.95
2023-04-03T11:33:59.392Z,6.37
2023-04-03T11:36:32.270Z,6.48
2023-04-03T11:39:01.518Z,6.30
2023-04-03T11:41:27.929Z,6.72
2023-04-03T11:43:54.343Z,6.52
2023-04-03T11:46:20.821Z,6.65
2023-04-03T11:48:47.220Z,6.53
2023-04-03T11:51:13.629Z,6.90
2023-04-03T11:53:40.083Z,6.49
2023-04-03T11:56:06.495Z,6.21
2023-04-03T11:58:32.883Z,6.13
2023-04-03T12:01:02.088Z,6.04
2023-04-03T12:03:28.669Z,5.66
2023-04-03T12:05:55.207Z,5.59
2023-04-03T12:08:21.610Z,5.25
2023-04-03T12:10:48.002Z,5.42
2023-04-03T12:13:14.477Z,5.40
2023-04-03T12:15:40.888Z,5.70
2023-04-03T12:18:07.376Z,5.63
2023-04-03T12:20:33.823Z,5.38
2023-04-03T12:23:00.235Z,5.25
2023-04-03T12:25:26.648Z,5.51
2023-04-03T12:27:53.044Z,5.87
2023-04-03T12:30:19.430Z,5.35
2023-04-03T12:32:45.885Z,5.01
2023-04-03T12:35:12.312Z,5.14
2023-04-03T12:37:38.728Z,5.58
2023-04-03T12:40:05.113Z,5.20
2023-04-03T12:42:31.513Z,4.90
2023-04-03T12:44:57.926Z,5.57
2023-04-03T12:47:24.448Z,5.40
2023-04-03T12:49:52.647Z,5.08
2023-04-03T12:52:19.269Z,5.41
2023-04-03T12:54:45.678Z,5.18
2023-04-03T12:57:12.160Z,4.85
2023-04-03T12:59:38.583Z,5.39
2023-04-03T13:02:05.006Z,5.49
2023-04-03T13:04:31.433Z,5.22
2023-04-03T13:06:57.823Z,4.76
2023-04-03T13:09:24.276Z,4.70
2023-04-03T13:11:50.677Z,4.77
2023-04-03T13:14:17.190Z,4.69
2023-04-03T13:16:44.397Z,5.38
2023-04-03T13:19:11.206Z,5.18
2023-04-03T13:21:37.694Z,4.82
2023-04-03T13:24:14.661Z,4.71
2023-04-03T13:26:42.512Z,4.73
2023-04-03T13:29:11.036Z,4.77
2023-04-03T13:31:44.146Z,4.95
2023-04-03T13:34:10.590Z,5.12
2023-04-03T13:36:37.016Z,5.06
2023-04-03T13:39:03.488Z,4.93
2023-04-03T13:41:29.893Z,4.85
2023-04-03T13:44:00.606Z,4.64
2023-04-03T13:46:33.146Z,4.50
2023-04-03T13:49:00.236Z,4.67
2023-04-03T13:51:26.829Z,4.91
2023-04-03T13:53:53.237Z,4.72
2023-04-03T13:56:19.671Z,4.89
2023-04-03T13:58:46.059Z,4.90
2023-04-03T14:01:12.541Z,4.83
2023-04-03T14:03:39.051Z,4.86
2023-04-03T14:06:05.490Z,4.83
2023-04-03T14:08:42.314Z,4.71
2023-04-03T14:11:10.617Z,4.50
2023-04-03T14:13:38.201Z,4.56
2023-04-03T14:16:19.472Z,4.53
2023-04-03T14:18:45.884Z,4.63
2023-04-03T14:21:12.312Z,4.71
2023-04-03T14:23:39.647Z,4.67
2023-04-03T14:26:07.217Z,4.39
2023-04-03T14:28:34.830Z,4.58
2023-04-03T14:31:02.499Z,4.42
2023-04-03T14:33:30.032Z,4.38
2023-04-03T14:35:57.926Z,4.71
2023-04-03T14:38:25.242Z,4.42
2023-04-03T14:40:55.586Z,4.09
2023-04-03T14:43:26.090Z,4.34
2023-04-03T14:45:55.046Z,4.20
2023-04-03T14:48:23.621Z,4.11
2023-04-03T14:51:04.430Z,3.72
2023-04-03T14:56:05.467Z,3.81
2023-04-03T14:58:32.058Z,3.72
2023-04-03T15:00:59.653Z,4.08
2023-04-03T15:03:27.374Z,4.14
2023-04-03T15:05:54.837Z,4.09
2023-04-03T15:08:22.443Z,3.97
2023-04-03T15:10:51.293Z,3.94
2023-04-03T15:13:18.646Z,4.06
2023-04-03T15:15:47.728Z,3.84
2023-04-03T15:18:16.205Z,3.93
2023-04-03T15:20:44.473Z,4.03
2023-04-03T15:23:12.032Z,3.82
2023-04-03T15:25:40.595Z,3.77
2023-04-03T15:28:08.241Z,3.71
2023-04-03T15:30:36.957Z,3.90
2023-04-03T15:33:04.438Z,3.92
2023-04-03T15:35:30.891Z,3.76
2023-04-03T15:37:57.340Z,3.82
2023-04-03T15:40:23.858Z,3.69
2023-04-03T15:42:51.310Z,3.98
2023-04-03T15:45:19.546Z,3.66
2023-04-03T15:47:47.023Z,3.68
2023-04-03T15:50:13.451Z,3.85
2023-04-03T15:52:39.891Z,3.73
2023-04-03T15:55:06.289Z,3.81
2023-04-03T15:59:59.069Z,4.03
2023-04-03T16:02:25.507Z,3.82
2023-04-03T16:04:51.894Z,3.57
2023-04-03T16:07:18.308Z,3.80
2023-04-03T16:09:44.703Z,3.98
2023-04-03T16:12:11.109Z,3.68
2023-04-03T16:14:37.516Z,3.70
2023-04-03T16:17:04.006Z,4.05
2023-04-03T16:19:30.414Z,3.86
2023-04-03T16:21:56.810Z,3.79
2023-04-03T16:24:23.378Z,3.42
2023-04-03T16:26:49.874Z,3.89
2023-04-03T16:29:16.288Z,3.81
2023-04-03T16:31:42.714Z,3.88
2023-04-03T16:34:09.200Z,3.69
2023-04-03T16:36:35.610Z,4.01
2023-04-03T16:39:02.102Z,3.93
2023-04-03T16:41:28.536Z,4.52
2023-04-03T16:43:55.024Z,5.04
2023-04-03T16:46:21.463Z,5.07
2023-04-03T16:48:47.892Z,5.08
2023-04-03T16:51:14.309Z,5.05
2023-04-03T16:53:40.734Z,4.21
2023-04-03T16:56:07.174Z,5.52
2023-04-03T16:58:33.578Z,4.69
2023-04-03T17:01:00.002Z,5.44
2023-04-03T17:03:26.621Z,4.12
2023-04-03T17:05:53.162Z,4.17
2023-04-03T17:08:19.555Z,4.08
2023-04-03T17:10:45.963Z,3.94
2023-04-03T17:13:12.341Z,4.02
2023-04-03T17:15:39.046Z,4.03
2023-04-03T17:18:05.673Z,4.09
2023-04-03T17:20:32.058Z,4.02
2023-04-03T17:22:58.514Z,4.30
2023-04-03T17:25:24.988Z,4.46
2023-04-03T17:27:51.391Z,5.05
2023-04-03T17:30:17.830Z,5.29
2023-04-03T17:32:44.327Z,4.82
2023-04-03T17:35:11.822Z,4.43
2023-04-03T17:37:38.514Z,4.95
2023-04-03T17:40:04.936Z,5.00
2023-04-03T17:42:31.387Z,4.46
2023-04-03T17:44:57.796Z,4.95
2023-04-03T17:47:24.218Z,4.91
2023-04-03T17:49:50.614Z,4.62
2023-04-03T17:52:17.018Z,4.69
2023-04-03T17:54:43.463Z,4.19
2023-04-03T17:57:09.845Z,4.21
2023-04-03T17:59:36.325Z,4.44
2023-04-03T18:02:02.833Z,3.99
2023-04-03T18:04:29.256Z,4.13
2023-04-03T18:06:55.649Z,4.31
2023-04-03T18:09:22.052Z,4.27
2023-04-03T18:11:48.455Z,5.41
2023-04-03T18:14:14.858Z,5.25
2023-04-03T18:16:41.263Z,4.42
2023-04-03T18:19:21.862Z,4.23
2023-04-03T18:21:48.872Z,4.26
2023-04-03T18:24:15.287Z,4.69
2023-04-03T18:26:43.477Z,4.31
2023-04-03T18:29:10.783Z,4.56
2023-04-03T18:31:37.319Z,4.37
2023-04-03T18:34:03.760Z,4.33
2023-04-03T18:36:30.364Z,4.31
2023-04-03T18:38:56.814Z,4.18
2023-04-03T18:41:23.233Z,4.11
2023-04-03T18:43:49.628Z,3.87
2023-04-03T18:46:16.114Z,3.58
2023-04-03T18:48:42.642Z,3.68
2023-04-03T18:51:09.066Z,4.00
2023-04-03T18:53:35.470Z,3.72
2023-04-03T18:56:01.876Z,3.86
2023-04-03T18:58:28.263Z,3.79
2023-04-03T19:00:54.660Z,3.85
2023-04-03T19:03:21.203Z,3.99
2023-04-03T19:05:47.711Z,4.22
2023-04-03T19:08:14.111Z,4.29
2023-04-03T19:10:40.550Z,4.45
2023-04-03T19:13:06.966Z,4.69
2023-04-03T19:15:33.352Z,4.67
2023-04-03T19:17:59.760Z,4.53
2023-04-03T19:20:26.199Z,4.30
2023-04-03T19:22:52.733Z,4.65
2023-04-03T19:25:19.141Z,4.47
2023-04-03T19:27:45.549Z,4.61
2023-04-03T19:30:11.949Z,4.68
2023-04-03T19:32:38.407Z,4.89
2023-04-03T19:35:04.866Z,4.73
2023-04-03T19:37:31.277Z,4.61
2023-04-03T19:39:57.687Z,4.67
2023-04-03T19:42:24.073Z,4.53
2023-04-03T19:44:50.477Z,4.57
2023-04-03T19:47:16.903Z,4.88
2023-04-03T19:49:43.351Z,4.91
2023-04-03T19:52:09.769Z,4.69
2023-04-03T19:54:36.147Z,4.75
2023-04-03T19:57:02.547Z,4.59
2023-04-03T19:59:29.151Z,4.58
2023-04-03T20:01:55.620Z,4.97
2023-04-03T20:04:22.085Z,5.06
2023-04-03T20:06:48.518Z,4.85
2023-04-03T20:09:14.914Z,5.11
2023-04-03T20:11:41.430Z,4.90
2023-04-03T20:14:07.857Z,5.09
2023-04-03T20:16:34.367Z,5.05
2023-04-03T20:19:00.808Z,4.89
2023-04-03T20:21:27.214Z,5.06
2023-04-03T20:23:53.649Z,5.10
2023-04-03T20:26:20.096Z,5.46
2023-04-03T20:28:46.514Z,5.18
2023-04-03T20:31:12.919Z,5.36
2023-04-03T20:33:39.363Z,4.94
2023-04-03T20:36:05.760Z,5.37
2023-04-03T20:38:32.153Z,5.27
2023-04-03T20:40:58.562Z,5.67
2023-04-03T20:43:24.953Z,5.54
2023-04-03T20:45:51.375Z,5.62
2023-04-03T20:48:20.262Z,5.62
2023-04-03T20:50:46.975Z,5.56
2023-04-03T20:53:13.488Z,5.53
2023-04-03T20:55:40.112Z,5.58
2023-04-03T20:58:06.547Z,5.79
2023-04-03T21:00:32.947Z,5.87
2023-04-03T21:02:59.437Z,5.88
2023-04-03T21:05:25.886Z,5.73
2023-04-03T21:07:52.297Z,5.99
2023-04-03T21:10:18.737Z,6.12
2023-04-03T21:12:45.133Z,5.83
2023-04-03T21:15:11.539Z,5.82
2023-04-03T21:17:37.986Z,6.20
2023-04-03T21:20:04.417Z,5.86
2023-04-03T21:22:30.795Z,6.10
2023-04-03T21:24:57.218Z,6.15
2023-04-03T21:27:23.612Z,5.86
2023-04-03T21:29:50.024Z,6.04
2023-04-03T21:32:16.419Z,6.39
2023-04-03T21:34:42.841Z,6.78
2023-04-03T21:37:09.376Z,6.28
2023-04-03T21:39:35.826Z,6.39
2023-04-03T21:42:02.238Z,6.38
2023-04-03T21:44:28.693Z,6.59
2023-04-03T21:46:55.250Z,6.44
2023-04-03T21:49:21.629Z,6.27
2023-04-03T21:51:48.042Z,6.58
2023-04-03T21:54:14.473Z,6.53
2023-04-03T21:56:40.873Z,6.36
2023-04-03T21:59:07.403Z,6.40
2023-04-03T22:01:33.935Z,6.59
2023-04-03T22:04:00.387Z,6.67
2023-04-03T22:06:26.774Z,6.29
2023-04-03T22:08:53.152Z,6.57
2023-04-03T22:11:19.546Z,6.18
2023-04-03T22:13:45.945Z,6.09
2023-04-03T22:16:12.497Z,6.58
2023-04-03T22:18:39.069Z,6.20
2023-04-03T22:21:05.527Z,5.88
2023-04-03T22:23:31.938Z,5.84
2023-04-03T22:25:58.365Z,5.86
2023-04-03T22:28:24.763Z,5.74
2023-04-03T22:30:51.140Z,5.67
2023-04-03T22:33:17.518Z,5.61
2023-04-03T22:35:43.932Z,5.59
2023-04-03T22:38:10.335Z,5.63
2023-04-03T22:40:36.841Z,5.46
2023-04-03T22:43:03.388Z,5.45
2023-04-03T22:45:29.832Z,5.13
2023-04-03T22:47:56.351Z,5.18
2023-04-03T22:50:22.801Z,5.28
2023-04-03T22:52:49.237Z,5.24
2023-04-03T22:55:19.555Z,5.01
2023-04-03T22:57:46.265Z,5.38
2023-04-03T23:00:12.680Z,4.86
2023-04-03T23:02:39.176Z,4.99
2023-04-03T23:05:05.561Z,4.59
2023-04-03T23:07:31.960Z,4.83
2023-04-03T23:09:58.412Z,4.56
2023-04-03T23:12:24.782Z,4.52
2023-04-03T23:14:51.226Z,4.36
2023-04-03T23:17:17.662Z,4.06
2023-04-03T23:19:44.053Z,4.50
2023-04-03T23:22:10.426Z,4.16
2023-04-03T23:24:36.888Z,4.03
2023-04-03T23:27:03.337Z,4.00
2023-04-03T23:29:29.709Z,3.88
2023-04-03T23:31:56.187Z,3.75
2023-04-03T23:34:22.649Z,3.68
2023-04-03T23:36:49.037Z,3.95
2023-04-03T23:39:15.536Z,3.61
2023-04-03T23:41:43.236Z,3.40
2023-04-03T23:44:10.710Z,3.51
2023-04-03T23:46:37.174Z,3.37
2023-04-03T23:49:03.615Z,3.41
2023-04-03T23:51:30.014Z,3.31
2023-04-03T23:53:56.437Z,3.37
2023-04-03T23:56:22.856Z,3.42
2023-04-03T23:58:49.260Z,3.53
